sensor_id;sensor_type;location;lat;lon;timestamp;P1;durP1;ratioP1;P2;durP2;ratioP2
2840;SDS011;53423;49.224;12.074;2022-10-30T00:00:16;12.80;;;10.33;;
2840;SDS011;53423;49.224;12.074;2022-10-30T00:02:46;16.00;;;11.13;;
2840;SDS011;53423;49.224;12.074;2022-10-30T00:05:15;17.53;;;12.93;;
2840;SDS011;53423;49.224;12.074;2022-10-30T00:07:43;16.73;;;11.53;;
2840;SDS011;53423;49.224;12.074;2022-10-30T00:10:11;16.93;;;11.27;;
2840;SDS011;53423;49.224;12.074;2022-10-30T00:12:39;16.03;;;11.43;;
2840;SDS011;53423;49.224;12.074;2022-10-30T00:15:08;14.63;;;10.47;;
2840;SDS011;53423;49.224;12.074;2022-10-30T00:17:36;13.27;;;10.30;;
2840;SDS011;53423;49.224;12.074;2022-10-30T00:20:06;11.83;;;10.47;;
2840;SDS011;53423;49.224;12.074;2022-10-30T00:22:35;14.37;;;10.33;;
2840;SDS011;53423;49.224;12.074;2022-10-30T00:25:03;14.27;;;10.77;;
2840;SDS011;53423;49.224;12.074;2022-10-30T00:27:31;11.80;;;8.87;;
2840;SDS011;53423;49.224;12.074;2022-10-30T00:29:59;9.87;;;8.73;;
2840;SDS011;53423;49.224;12.074;2022-10-30T00:32:27;15.03;;;8.80;;
2840;SDS011;53423;49.224;12.074;2022-10-30T00:34:55;10.67;;;7.87;;
2840;SDS011;53423;49.224;12.074;2022-10-30T00:37:24;10.83;;;7.93;;
2840;SDS011;53423;49.224;12.074;2022-10-30T00:39:52;13.17;;;8.57;;
2840;SDS011;53423;49.224;12.074;2022-10-30T00:42:19;13.00;;;9.50;;
2840;SDS011;53423;49.224;12.074;2022-10-30T00:44:48;12.43;;;8.73;;
2840;SDS011;53423;49.224;12.074;2022-10-30T00:47:19;15.87;;;9.63;;
2840;SDS011;53423;49.224;12.074;2022-10-30T00:49:50;14.03;;;9.43;;
2840;SDS011;53423;49.224;12.074;2022-10-30T00:52:24;9.67;;;8.13;;
2840;SDS011;53423;49.224;12.074;2022-10-30T00:54:56;9.73;;;8.73;;
2840;SDS011;53423;49.224;12.074;2022-10-30T00:57:28;13.27;;;9.40;;
2840;SDS011;53423;49.224;12.074;2022-10-30T00:59:56;13.27;;;9.60;;
2840;SDS011;53423;49.224;12.074;2022-10-30T01:02:24;10.90;;;8.43;;
2840;SDS011;53423;49.224;12.074;2022-10-30T01:04:52;13.17;;;8.87;;
2840;SDS011;53423;49.224;12.074;2022-10-30T01:07:22;11.47;;;9.27;;
2840;SDS011;53423;49.224;12.074;2022-10-30T01:09:51;15.83;;;8.53;;
2840;SDS011;53423;49.224;12.074;2022-10-30T01:12:18;12.33;;;9.30;;
2840;SDS011;53423;49.224;12.074;2022-10-30T01:14:48;10.67;;;8.80;;
2840;SDS011;53423;49.224;12.074;2022-10-30T01:17:32;11.07;;;8.57;;
2840;SDS011;53423;49.224;12.074;2022-10-30T01:20:36;13.70;;;9.60;;
2840;SDS011;53423;49.224;12.074;2022-10-30T01:23:19;11.93;;;8.90;;
2840;SDS011;53423;49.224;12.074;2022-10-30T01:26:02;13.83;;;8.80;;
2840;SDS011;53423;49.224;12.074;2022-10-30T01:28:42;10.13;;;8.90;;
2840;SDS011;53423;49.224;12.074;2022-10-30T01:31:28;14.43;;;9.80;;
2840;SDS011;53423;49.224;12.074;2022-10-30T01:34:10;13.73;;;9.60;;
2840;SDS011;53423;49.224;12.074;2022-10-30T01:36:45;14.23;;;9.27;;
2840;SDS011;53423;49.224;12.074;2022-10-30T01:39:22;11.30;;;9.03;;
2840;SDS011;53423;49.224;12.074;2022-10-30T01:41:52;11.13;;;8.90;;
2840;SDS011;53423;49.224;12.074;2022-10-30T01:44:21;10.20;;;8.33;;
2840;SDS011;53423;49.224;12.074;2022-10-30T01:46:57;11.37;;;8.77;;
2840;SDS011;53423;49.224;12.074;2022-10-30T01:49:42;9.53;;;7.20;;
2840;SDS011;53423;49.224;12.074;2022-10-30T01:52:26;8.40;;;7.07;;
2840;SDS011;53423;49.224;12.074;2022-10-30T01:55:08;8.67;;;7.70;;
2840;SDS011;53423;49.224;12.074;2022-10-30T01:57:47;8.33;;;7.57;;
2840;SDS011;53423;49.224;12.074;2022-10-30T02:00:20;9.63;;;7.43;;
2840;SDS011;53423;49.224;12.074;2022-10-30T02:02:49;12.70;;;7.97;;
2840;SDS011;53423;49.224;12.074;2022-10-30T02:05:19;10.70;;;7.77;;
2840;SDS011;53423;49.224;12.074;2022-10-30T02:07:54;8.70;;;7.57;;
2840;SDS011;53423;49.224;12.074;2022-10-30T02:10:23;10.00;;;8.07;;
2840;SDS011;53423;49.224;12.074;2022-10-30T02:12:51;11.23;;;8.57;;
2840;SDS011;53423;49.224;12.074;2022-10-30T02:15:19;11.80;;;8.83;;
2840;SDS011;53423;49.224;12.074;2022-10-30T02:17:47;10.87;;;9.00;;
2840;SDS011;53423;49.224;12.074;2022-10-30T02:20:17;9.63;;;8.27;;
2840;SDS011;53423;49.224;12.074;2022-10-30T02:22:45;7.63;;;6.93;;
2840;SDS011;53423;49.224;12.074;2022-10-30T02:25:13;12.60;;;8.07;;
2840;SDS011;53423;49.224;12.074;2022-10-30T02:27:41;11.07;;;7.97;;
2840;SDS011;53423;49.224;12.074;2022-10-30T02:30:09;9.13;;;8.20;;
2840;SDS011;53423;49.224;12.074;2022-10-30T02:32:38;9.67;;;8.73;;
2840;SDS011;53423;49.224;12.074;2022-10-30T02:35:06;12.17;;;8.73;;
2840;SDS011;53423;49.224;12.074;2022-10-30T02:37:35;15.70;;;9.37;;
2840;SDS011;53423;49.224;12.074;2022-10-30T02:40:05;10.50;;;8.37;;
2840;SDS011;53423;49.224;12.074;2022-10-30T02:42:34;10.60;;;9.40;;
2840;SDS011;53423;49.224;12.074;2022-10-30T02:45:02;11.20;;;8.43;;
2840;SDS011;53423;49.224;12.074;2022-10-30T02:47:30;10.63;;;8.33;;
2840;SDS011;53423;49.224;12.074;2022-10-30T02:49:59;12.27;;;8.20;;
2840;SDS011;53423;49.224;12.074;2022-10-30T02:52:26;11.63;;;8.63;;
2840;SDS011;53423;49.224;12.074;2022-10-30T02:54:55;12.87;;;9.97;;
2840;SDS011;53423;49.224;12.074;2022-10-30T02:57:23;19.00;;;10.63;;
2840;SDS011;53423;49.224;12.074;2022-10-30T02:59:51;11.37;;;8.67;;
2840;SDS011;53423;49.224;12.074;2022-10-30T03:02:18;11.40;;;8.53;;
2840;SDS011;53423;49.224;12.074;2022-10-30T03:04:46;10.23;;;8.43;;
2840;SDS011;53423;49.224;12.074;2022-10-30T03:07:14;10.80;;;9.20;;
2840;SDS011;53423;49.224;12.074;2022-10-30T03:09:42;10.63;;;8.83;;
2840;SDS011;53423;49.224;12.074;2022-10-30T03:12:11;14.43;;;9.23;;
2840;SDS011;53423;49.224;12.074;2022-10-30T03:14:39;12.77;;;9.27;;
2840;SDS011;53423;49.224;12.074;2022-10-30T03:17:06;11.93;;;8.70;;
2840;SDS011;53423;49.224;12.074;2022-10-30T03:19:34;13.67;;;8.60;;
2840;SDS011;53423;49.224;12.074;2022-10-30T03:22:02;12.83;;;8.13;;
2840;SDS011;53423;49.224;12.074;2022-10-30T03:24:30;10.03;;;8.60;;
2840;SDS011;53423;49.224;12.074;2022-10-30T03:26:57;10.73;;;8.20;;
2840;SDS011;53423;49.224;12.074;2022-10-30T03:29:27;10.57;;;7.70;;
2840;SDS011;53423;49.224;12.074;2022-10-30T03:31:55;11.87;;;8.57;;
2840;SDS011;53423;49.224;12.074;2022-10-30T03:34:22;13.57;;;8.03;;
2840;SDS011;53423;49.224;12.074;2022-10-30T03:36:50;11.47;;;8.17;;
2840;SDS011;53423;49.224;12.074;2022-10-30T03:39:18;10.60;;;8.57;;
2840;SDS011;53423;49.224;12.074;2022-10-30T03:41:46;9.33;;;8.10;;
2840;SDS011;53423;49.224;12.074;2022-10-30T03:44:13;9.60;;;8.20;;
2840;SDS011;53423;49.224;12.074;2022-10-30T03:46:42;9.80;;;8.00;;
2840;SDS011;53423;49.224;12.074;2022-10-30T03:49:10;9.47;;;8.30;;
2840;SDS011;53423;49.224;12.074;2022-10-30T03:51:38;9.60;;;7.90;;
2840;SDS011;53423;49.224;12.074;2022-10-30T03:54:06;10.27;;;8.13;;
2840;SDS011;53423;49.224;12.074;2022-10-30T03:56:34;11.67;;;8.07;;
2840;SDS011;53423;49.224;12.074;2022-10-30T03:59:01;9.97;;;8.43;;
2840;SDS011;53423;49.224;12.074;2022-10-30T04:01:29;10.97;;;8.03;;
2840;SDS011;53423;49.224;12.074;2022-10-30T04:03:58;11.70;;;8.37;;
2840;SDS011;53423;49.224;12.074;2022-10-30T04:06:26;11.10;;;8.70;;
2840;SDS011;53423;49.224;12.074;2022-10-30T04:08:54;9.37;;;7.73;;
2840;SDS011;53423;49.224;12.074;2022-10-30T04:11:21;8.97;;;7.17;;
2840;SDS011;53423;49.224;12.074;2022-10-30T04:13:49;8.23;;;7.23;;
2840;SDS011;53423;49.224;12.074;2022-10-30T04:16:17;10.40;;;7.77;;
2840;SDS011;53423;49.224;12.074;2022-10-30T04:18:45;10.97;;;7.70;;
2840;SDS011;53423;49.224;12.074;2022-10-30T04:21:14;12.80;;;8.20;;
2840;SDS011;53423;49.224;12.074;2022-10-30T04:23:42;8.10;;;7.30;;
2840;SDS011;53423;49.224;12.074;2022-10-30T04:26:09;10.50;;;8.20;;
2840;SDS011;53423;49.224;12.074;2022-10-30T04:28:38;10.93;;;7.87;;
2840;SDS011;53423;49.224;12.074;2022-10-30T04:31:05;11.03;;;7.90;;
2840;SDS011;53423;49.224;12.074;2022-10-30T04:33:33;9.67;;;8.00;;
2840;SDS011;53423;49.224;12.074;2022-10-30T04:36:01;10.57;;;8.33;;
2840;SDS011;53423;49.224;12.074;2022-10-30T04:38:30;11.37;;;7.43;;
2840;SDS011;53423;49.224;12.074;2022-10-30T04:40:58;11.57;;;8.53;;
2840;SDS011;53423;49.224;12.074;2022-10-30T04:43:26;9.90;;;8.00;;
2840;SDS011;53423;49.224;12.074;2022-10-30T04:45:53;11.70;;;7.70;;
2840;SDS011;53423;49.224;12.074;2022-10-30T04:48:21;8.97;;;7.77;;
2840;SDS011;53423;49.224;12.074;2022-10-30T04:50:49;10.97;;;7.30;;
2840;SDS011;53423;49.224;12.074;2022-10-30T04:53:17;7.47;;;6.77;;
2840;SDS011;53423;49.224;12.074;2022-10-30T04:55:51;9.50;;;6.90;;
2840;SDS011;53423;49.224;12.074;2022-10-30T04:58:20;12.50;;;7.97;;
2840;SDS011;53423;49.224;12.074;2022-10-30T05:00:48;8.33;;;6.90;;
2840;SDS011;53423;49.224;12.074;2022-10-30T05:03:16;10.20;;;8.30;;
2840;SDS011;53423;49.224;12.074;2022-10-30T05:05:46;8.47;;;7.23;;
2840;SDS011;53423;49.224;12.074;2022-10-30T05:08:15;9.90;;;7.40;;
2840;SDS011;53423;49.224;12.074;2022-10-30T05:10:42;10.27;;;6.80;;
2840;SDS011;53423;49.224;12.074;2022-10-30T05:13:11;14.93;;;11.07;;
2840;SDS011;53423;49.224;12.074;2022-10-30T05:15:39;16.57;;;11.37;;
2840;SDS011;53423;49.224;12.074;2022-10-30T05:18:07;9.93;;;8.90;;
2840;SDS011;53423;49.224;12.074;2022-10-30T05:20:35;13.03;;;7.73;;
2840;SDS011;53423;49.224;12.074;2022-10-30T05:23:02;8.53;;;7.30;;
2840;SDS011;53423;49.224;12.074;2022-10-30T05:25:31;8.23;;;7.13;;
2840;SDS011;53423;49.224;12.074;2022-10-30T05:27:58;10.70;;;7.40;;
2840;SDS011;53423;49.224;12.074;2022-10-30T05:30:28;9.87;;;7.33;;
2840;SDS011;53423;49.224;12.074;2022-10-30T05:32:57;9.03;;;7.30;;
2840;SDS011;53423;49.224;12.074;2022-10-30T05:35:26;7.83;;;6.93;;
2840;SDS011;53423;49.224;12.074;2022-10-30T05:37:54;11.67;;;7.40;;
2840;SDS011;53423;49.224;12.074;2022-10-30T05:40:22;10.20;;;7.03;;
2840;SDS011;53423;49.224;12.074;2022-10-30T05:42:50;11.70;;;7.50;;
2840;SDS011;53423;49.224;12.074;2022-10-30T05:45:18;9.83;;;7.07;;
2840;SDS011;53423;49.224;12.074;2022-10-30T05:47:54;7.37;;;6.67;;
2840;SDS011;53423;49.224;12.074;2022-10-30T05:50:23;7.43;;;6.60;;
2840;SDS011;53423;49.224;12.074;2022-10-30T05:52:53;9.90;;;7.20;;
2840;SDS011;53423;49.224;12.074;2022-10-30T05:55:22;9.50;;;8.23;;
2840;SDS011;53423;49.224;12.074;2022-10-30T05:57:54;10.47;;;7.37;;
2840;SDS011;53423;49.224;12.074;2022-10-30T06:00:22;8.53;;;7.17;;
2840;SDS011;53423;49.224;12.074;2022-10-30T06:02:50;7.80;;;6.93;;
2840;SDS011;53423;49.224;12.074;2022-10-30T06:05:19;11.13;;;6.60;;
2840;SDS011;53423;49.224;12.074;2022-10-30T06:07:47;7.83;;;7.07;;
2840;SDS011;53423;49.224;12.074;2022-10-30T06:10:15;9.53;;;6.47;;
2840;SDS011;53423;49.224;12.074;2022-10-30T06:12:42;10.43;;;7.00;;
2840;SDS011;53423;49.224;12.074;2022-10-30T06:15:18;10.97;;;6.37;;
2840;SDS011;53423;49.224;12.074;2022-10-30T06:17:45;7.77;;;6.23;;
2840;SDS011;53423;49.224;12.074;2022-10-30T06:20:13;7.30;;;6.17;;
2840;SDS011;53423;49.224;12.074;2022-10-30T06:22:44;5.77;;;4.90;;
2840;SDS011;53423;49.224;12.074;2022-10-30T06:25:19;6.53;;;5.70;;
2840;SDS011;53423;49.224;12.074;2022-10-30T06:27:47;9.67;;;5.97;;
2840;SDS011;53423;49.224;12.074;2022-10-30T06:30:15;7.67;;;5.47;;
2840;SDS011;53423;49.224;12.074;2022-10-30T06:32:44;8.13;;;5.27;;
2840;SDS011;53423;49.224;12.074;2022-10-30T06:35:11;6.57;;;5.53;;
2840;SDS011;53423;49.224;12.074;2022-10-30T06:37:45;7.03;;;5.80;;
2840;SDS011;53423;49.224;12.074;2022-10-30T06:40:13;8.30;;;5.30;;
2840;SDS011;53423;49.224;12.074;2022-10-30T06:42:42;6.63;;;5.90;;
2840;SDS011;53423;49.224;12.074;2022-10-30T06:45:10;6.53;;;5.93;;
2840;SDS011;53423;49.224;12.074;2022-10-30T06:47:39;6.80;;;6.20;;
2840;SDS011;53423;49.224;12.074;2022-10-30T06:50:08;10.83;;;6.60;;
2840;SDS011;53423;49.224;12.074;2022-10-30T06:52:38;8.03;;;6.10;;
2840;SDS011;53423;49.224;12.074;2022-10-30T06:55:07;7.83;;;6.17;;
2840;SDS011;53423;49.224;12.074;2022-10-30T06:57:35;8.10;;;6.07;;
2840;SDS011;53423;49.224;12.074;2022-10-30T07:00:04;8.57;;;6.87;;
2840;SDS011;53423;49.224;12.074;2022-10-30T07:02:33;8.83;;;6.87;;
2840;SDS011;53423;49.224;12.074;2022-10-30T07:05:01;8.50;;;6.87;;
2840;SDS011;53423;49.224;12.074;2022-10-30T07:07:29;8.90;;;6.47;;
2840;SDS011;53423;49.224;12.074;2022-10-30T07:09:57;7.77;;;6.97;;
2840;SDS011;53423;49.224;12.074;2022-10-30T07:12:26;12.43;;;7.30;;
2840;SDS011;53423;49.224;12.074;2022-10-30T07:14:54;9.43;;;6.63;;
2840;SDS011;53423;49.224;12.074;2022-10-30T07:17:21;10.03;;;6.83;;
2840;SDS011;53423;49.224;12.074;2022-10-30T07:19:49;8.17;;;7.07;;
2840;SDS011;53423;49.224;12.074;2022-10-30T07:22:17;9.97;;;7.63;;
2840;SDS011;53423;49.224;12.074;2022-10-30T07:24:44;8.67;;;7.30;;
2840;SDS011;53423;49.224;12.074;2022-10-30T07:27:12;11.03;;;7.63;;
2840;SDS011;53423;49.224;12.074;2022-10-30T07:29:41;8.63;;;7.43;;
2840;SDS011;53423;49.224;12.074;2022-10-30T07:32:10;11.13;;;7.53;;
2840;SDS011;53423;49.224;12.074;2022-10-30T07:34:38;8.50;;;7.00;;
2840;SDS011;53423;49.224;12.074;2022-10-30T07:37:06;9.53;;;6.90;;
2840;SDS011;53423;49.224;12.074;2022-10-30T07:39:34;9.17;;;6.57;;
2840;SDS011;53423;49.224;12.074;2022-10-30T07:42:01;13.20;;;7.30;;
2840;SDS011;53423;49.224;12.074;2022-10-30T07:44:29;7.87;;;6.90;;
2840;SDS011;53423;49.224;12.074;2022-10-30T07:46:58;8.83;;;6.60;;
2840;SDS011;53423;49.224;12.074;2022-10-30T07:49:26;8.37;;;6.70;;
2840;SDS011;53423;49.224;12.074;2022-10-30T07:51:54;8.77;;;6.50;;
2840;SDS011;53423;49.224;12.074;2022-10-30T07:54:21;8.53;;;6.40;;
2840;SDS011;53423;49.224;12.074;2022-10-30T07:56:49;8.60;;;6.40;;
2840;SDS011;53423;49.224;12.074;2022-10-30T07:59:17;10.57;;;6.37;;
2840;SDS011;53423;49.224;12.074;2022-10-30T08:01:44;9.57;;;7.03;;
2840;SDS011;53423;49.224;12.074;2022-10-30T08:04:14;9.33;;;7.30;;
2840;SDS011;53423;49.224;12.074;2022-10-30T08:06:41;8.77;;;7.60;;
2840;SDS011;53423;49.224;12.074;2022-10-30T08:09:09;11.30;;;8.60;;
2840;SDS011;53423;49.224;12.074;2022-10-30T08:11:37;9.30;;;8.10;;
2840;SDS011;53423;49.224;12.074;2022-10-30T08:14:05;8.63;;;7.73;;
2840;SDS011;53423;49.224;12.074;2022-10-30T08:16:33;8.57;;;7.03;;
2840;SDS011;53423;49.224;12.074;2022-10-30T08:19:00;8.37;;;7.47;;
2840;SDS011;53423;49.224;12.074;2022-10-30T08:21:29;11.27;;;7.77;;
2840;SDS011;53423;49.224;12.074;2022-10-30T08:23:57;9.27;;;7.57;;
2840;SDS011;53423;49.224;12.074;2022-10-30T08:26:25;12.60;;;7.50;;
2840;SDS011;53423;49.224;12.074;2022-10-30T08:28:53;7.80;;;7.00;;
2840;SDS011;53423;49.224;12.074;2022-10-30T08:31:20;8.30;;;6.90;;
2840;SDS011;53423;49.224;12.074;2022-10-30T08:33:48;9.00;;;7.63;;
2840;SDS011;53423;49.224;12.074;2022-10-30T08:36:16;9.47;;;7.10;;
2840;SDS011;53423;49.224;12.074;2022-10-30T08:38:45;10.80;;;7.37;;
2840;SDS011;53423;49.224;12.074;2022-10-30T08:41:13;10.43;;;6.93;;
2840;SDS011;53423;49.224;12.074;2022-10-30T08:43:41;9.40;;;7.07;;
2840;SDS011;53423;49.224;12.074;2022-10-30T08:46:08;10.90;;;7.43;;
2840;SDS011;53423;49.224;12.074;2022-10-30T08:48:36;10.83;;;7.40;;
2840;SDS011;53423;49.224;12.074;2022-10-30T08:51:04;9.73;;;6.93;;
2840;SDS011;53423;49.224;12.074;2022-10-30T08:53:32;10.67;;;7.90;;
2840;SDS011;53423;49.224;12.074;2022-10-30T08:56:01;9.97;;;8.00;;
2840;SDS011;53423;49.224;12.074;2022-10-30T08:58:29;12.43;;;9.80;;
2840;SDS011;53423;49.224;12.074;2022-10-30T09:00:56;17.67;;;9.60;;
2840;SDS011;53423;49.224;12.074;2022-10-30T09:03:27;10.57;;;8.57;;
2840;SDS011;53423;49.224;12.074;2022-10-30T09:05:56;11.13;;;8.20;;
2840;SDS011;53423;49.224;12.074;2022-10-30T09:08:24;8.43;;;7.50;;
2840;SDS011;53423;49.224;12.074;2022-10-30T09:10:53;9.63;;;8.73;;
2840;SDS011;53423;49.224;12.074;2022-10-30T09:13:22;8.33;;;7.47;;
2840;SDS011;53423;49.224;12.074;2022-10-30T09:15:50;9.93;;;8.57;;
2840;SDS011;53423;49.224;12.074;2022-10-30T09:18:18;12.20;;;8.87;;
2840;SDS011;53423;49.224;12.074;2022-10-30T09:20:47;11.23;;;8.53;;
2840;SDS011;53423;49.224;12.074;2022-10-30T09:23:15;11.13;;;10.03;;
2840;SDS011;53423;49.224;12.074;2022-10-30T09:25:42;12.47;;;9.10;;
2840;SDS011;53423;49.224;12.074;2022-10-30T09:28:10;13.43;;;9.33;;
2840;SDS011;53423;49.224;12.074;2022-10-30T09:30:39;10.23;;;8.37;;
2840;SDS011;53423;49.224;12.074;2022-10-30T09:33:07;12.90;;;9.17;;
2840;SDS011;53423;49.224;12.074;2022-10-30T09:35:35;9.17;;;8.23;;
2840;SDS011;53423;49.224;12.074;2022-10-30T09:38:03;10.73;;;9.63;;
2840;SDS011;53423;49.224;12.074;2022-10-30T09:40:35;9.37;;;8.37;;
2840;SDS011;53423;49.224;12.074;2022-10-30T09:43:13;13.13;;;8.43;;
2840;SDS011;53423;49.224;12.074;2022-10-30T09:48:54;12.10;;;8.90;;
2840;SDS011;53423;49.224;12.074;2022-10-30T09:51:39;10.82;;;7.95;;
2840;SDS011;53423;49.224;12.074;2022-10-30T09:54:19;11.32;;;8.52;;
2840;SDS011;53423;49.224;12.074;2022-10-30T09:56:56;9.80;;;7.97;;
2840;SDS011;53423;49.224;12.074;2022-10-30T09:59:31;10.63;;;7.70;;
2840;SDS011;53423;49.224;12.074;2022-10-30T10:02:13;8.02;;;7.10;;
2840;SDS011;53423;49.224;12.074;2022-10-30T10:04:53;12.52;;;7.88;;
2840;SDS011;53423;49.224;12.074;2022-10-30T10:07:26;11.00;;;8.20;;
2840;SDS011;53423;49.224;12.074;2022-10-30T10:09:58;9.00;;;7.50;;
2840;SDS011;53423;49.224;12.074;2022-10-30T10:12:32;13.80;;;7.60;;
2840;SDS011;53423;49.224;12.074;2022-10-30T10:15:09;10.43;;;7.80;;
2840;SDS011;53423;49.224;12.074;2022-10-30T10:17:42;12.30;;;7.40;;
2840;SDS011;53423;49.224;12.074;2022-10-30T10:20:13;9.43;;;7.35;;
2840;SDS011;53423;49.224;12.074;2022-10-30T10:22:47;10.25;;;7.60;;
2840;SDS011;53423;49.224;12.074;2022-10-30T10:25:16;10.90;;;7.72;;
2840;SDS011;53423;49.224;12.074;2022-10-30T10:27:49;10.10;;;7.47;;
2840;SDS011;53423;49.224;12.074;2022-10-30T10:30:24;10.40;;;7.38;;
2840;SDS011;53423;49.224;12.074;2022-10-30T10:33:09;9.63;;;7.68;;
2840;SDS011;53423;49.224;12.074;2022-10-30T10:35:55;10.70;;;7.43;;
2840;SDS011;53423;49.224;12.074;2022-10-30T10:39:01;11.20;;;7.68;;
2840;SDS011;53423;49.224;12.074;2022-10-30T10:41:38;10.45;;;7.70;;
2840;SDS011;53423;49.224;12.074;2022-10-30T10:44:22;11.18;;;7.82;;
2840;SDS011;53423;49.224;12.074;2022-10-30T10:47:00;11.75;;;7.18;;
2840;SDS011;53423;49.224;12.074;2022-10-30T10:49:40;8.77;;;7.65;;
2840;SDS011;53423;49.224;12.074;2022-10-30T10:52:22;9.57;;;7.50;;
2840;SDS011;53423;49.224;12.074;2022-10-30T10:54:54;10.85;;;7.07;;
2840;SDS011;53423;49.224;12.074;2022-10-30T10:57:25;8.32;;;6.00;;
2840;SDS011;53423;49.224;12.074;2022-10-30T10:59:55;8.60;;;6.55;;
2840;SDS011;53423;49.224;12.074;2022-10-30T11:02:30;8.57;;;6.00;;
2840;SDS011;53423;49.224;12.074;2022-10-30T11:05:07;10.32;;;6.95;;
2840;SDS011;53423;49.224;12.074;2022-10-30T11:07:45;8.15;;;5.88;;
2840;SDS011;53423;49.224;12.074;2022-10-30T11:10:15;8.07;;;6.07;;
2840;SDS011;53423;49.224;12.074;2022-10-30T11:12:45;10.15;;;6.53;;
2840;SDS011;53423;49.224;12.074;2022-10-30T11:15:22;8.73;;;6.47;;
2840;SDS011;53423;49.224;12.074;2022-10-30T11:17:59;11.20;;;6.60;;
2840;SDS011;53423;49.224;12.074;2022-10-30T11:20:41;11.57;;;6.10;;
2840;SDS011;53423;49.224;12.074;2022-10-30T11:23:29;9.57;;;6.72;;
2840;SDS011;53423;49.224;12.074;2022-10-30T11:26:00;10.55;;;5.57;;
2840;SDS011;53423;49.224;12.074;2022-10-30T11:28:33;7.72;;;5.82;;
2840;SDS011;53423;49.224;12.074;2022-10-30T11:31:15;8.60;;;5.47;;
2840;SDS011;53423;49.224;12.074;2022-10-30T11:33:45;10.77;;;5.55;;
2840;SDS011;53423;49.224;12.074;2022-10-30T11:36:15;7.20;;;5.35;;
2840;SDS011;53423;49.224;12.074;2022-10-30T11:38:44;9.13;;;5.63;;
2840;SDS011;53423;49.224;12.074;2022-10-30T11:41:12;8.27;;;5.57;;
2840;SDS011;53423;49.224;12.074;2022-10-30T11:43:40;8.43;;;5.30;;
2840;SDS011;53423;49.224;12.074;2022-10-30T11:46:10;8.60;;;5.43;;
2840;SDS011;53423;49.224;12.074;2022-10-30T11:48:46;8.07;;;4.78;;
2840;SDS011;53423;49.224;12.074;2022-10-30T11:51:29;9.30;;;5.82;;
2840;SDS011;53423;49.224;12.074;2022-10-30T11:54:00;8.25;;;5.50;;
2840;SDS011;53423;49.224;12.074;2022-10-30T11:56:29;11.93;;;5.25;;
2840;SDS011;53423;49.224;12.074;2022-10-30T11:58:58;8.88;;;5.28;;
2840;SDS011;53423;49.224;12.074;2022-10-30T12:01:30;12.13;;;5.30;;
2840;SDS011;53423;49.224;12.074;2022-10-30T12:04:11;12.75;;;5.28;;
2840;SDS011;53423;49.224;12.074;2022-10-30T12:06:42;9.50;;;4.93;;
2840;SDS011;53423;49.224;12.074;2022-10-30T12:09:11;10.10;;;5.00;;
2840;SDS011;53423;49.224;12.074;2022-10-30T12:11:41;10.05;;;5.28;;
2840;SDS011;53423;49.224;12.074;2022-10-30T12:14:14;8.38;;;4.72;;
2840;SDS011;53423;49.224;12.074;2022-10-30T12:16:45;12.30;;;5.55;;
2840;SDS011;53423;49.224;12.074;2022-10-30T12:19:15;10.88;;;5.57;;
2840;SDS011;53423;49.224;12.074;2022-10-30T12:21:48;12.98;;;4.72;;
2840;SDS011;53423;49.224;12.074;2022-10-30T12:24:19;7.78;;;5.22;;
2840;SDS011;53423;49.224;12.074;2022-10-30T12:26:51;9.27;;;5.63;;
2840;SDS011;53423;49.224;12.074;2022-10-30T12:29:22;8.73;;;5.35;;
2840;SDS011;53423;49.224;12.074;2022-10-30T12:32:16;10.68;;;5.10;;
2840;SDS011;53423;49.224;12.074;2022-10-30T12:34:48;9.88;;;5.05;;
2840;SDS011;53423;49.224;12.074;2022-10-30T12:37:23;7.25;;;5.05;;
2840;SDS011;53423;49.224;12.074;2022-10-30T12:39:56;9.95;;;5.05;;
2840;SDS011;53423;49.224;12.074;2022-10-30T12:42:29;9.35;;;5.30;;
2840;SDS011;53423;49.224;12.074;2022-10-30T12:45:05;9.13;;;5.10;;
2840;SDS011;53423;49.224;12.074;2022-10-30T12:47:40;11.13;;;4.97;;
2840;SDS011;53423;49.224;12.074;2022-10-30T12:50:15;10.90;;;5.07;;
2840;SDS011;53423;49.224;12.074;2022-10-30T12:52:49;6.72;;;4.95;;
2840;SDS011;53423;49.224;12.074;2022-10-30T12:55:23;8.00;;;4.78;;
2840;SDS011;53423;49.224;12.074;2022-10-30T12:57:55;11.48;;;5.20;;
2840;SDS011;53423;49.224;12.074;2022-10-30T13:00:30;8.73;;;5.45;;
2840;SDS011;53423;49.224;12.074;2022-10-30T13:03:13;12.88;;;4.75;;
2840;SDS011;53423;49.224;12.074;2022-10-30T13:05:50;8.60;;;4.95;;
2840;SDS011;53423;49.224;12.074;2022-10-30T13:08:24;6.97;;;4.70;;
2840;SDS011;53423;49.224;12.074;2022-10-30T13:10:58;10.65;;;4.75;;
2840;SDS011;53423;49.224;12.074;2022-10-30T13:13:31;9.15;;;4.85;;
2840;SDS011;53423;49.224;12.074;2022-10-30T13:16:05;6.97;;;4.55;;
2840;SDS011;53423;49.224;12.074;2022-10-30T13:18:37;7.60;;;4.45;;
2840;SDS011;53423;49.224;12.074;2022-10-30T13:21:18;12.20;;;5.07;;
2840;SDS011;53423;49.224;12.074;2022-10-30T13:23:54;10.32;;;5.07;;
2840;SDS011;53423;49.224;12.074;2022-10-30T13:26:32;9.80;;;4.90;;
2840;SDS011;53423;49.224;12.074;2022-10-30T13:29:09;9.20;;;4.63;;
2840;SDS011;53423;49.224;12.074;2022-10-30T13:31:46;10.27;;;4.65;;
2840;SDS011;53423;49.224;12.074;2022-10-30T13:37:07;9.18;;;4.50;;
2840;SDS011;53423;49.224;12.074;2022-10-30T13:39:45;8.45;;;4.40;;
2840;SDS011;53423;49.224;12.074;2022-10-30T13:42:33;7.68;;;4.82;;
2840;SDS011;53423;49.224;12.074;2022-10-30T13:45:24;9.57;;;4.97;;
2840;SDS011;53423;49.224;12.074;2022-10-30T13:48:06;6.43;;;4.22;;
2840;SDS011;53423;49.224;12.074;2022-10-30T13:50:42;10.20;;;4.78;;
2840;SDS011;53423;49.224;12.074;2022-10-30T13:53:28;6.80;;;4.57;;
2840;SDS011;53423;49.224;12.074;2022-10-30T13:56:02;8.30;;;4.40;;
2840;SDS011;53423;49.224;12.074;2022-10-30T13:58:31;9.77;;;4.88;;
2840;SDS011;53423;49.224;12.074;2022-10-30T14:01:05;12.07;;;4.63;;
2840;SDS011;53423;49.224;12.074;2022-10-30T14:03:42;9.48;;;4.57;;
2840;SDS011;53423;49.224;12.074;2022-10-30T14:06:18;9.60;;;4.47;;
2840;SDS011;53423;49.224;12.074;2022-10-30T14:08:56;8.20;;;4.47;;
2840;SDS011;53423;49.224;12.074;2022-10-30T14:11:33;7.55;;;4.47;;
2840;SDS011;53423;49.224;12.074;2022-10-30T14:14:12;9.30;;;4.55;;
2840;SDS011;53423;49.224;12.074;2022-10-30T14:17:06;8.85;;;4.65;;
2840;SDS011;53423;49.224;12.074;2022-10-30T14:22:39;8.93;;;4.40;;
2840;SDS011;53423;49.224;12.074;2022-10-30T14:25:11;6.65;;;4.60;;
2840;SDS011;53423;49.224;12.074;2022-10-30T14:27:41;8.25;;;4.47;;
2840;SDS011;53423;49.224;12.074;2022-10-30T14:30:16;13.13;;;5.35;;
2840;SDS011;53423;49.224;12.074;2022-10-30T14:32:49;10.75;;;4.55;;
2840;SDS011;53423;49.224;12.074;2022-10-30T14:38:22;8.57;;;4.37;;
2840;SDS011;53423;49.224;12.074;2022-10-30T14:41:03;7.63;;;4.07;;
2840;SDS011;53423;49.224;12.074;2022-10-30T14:43:43;8.83;;;4.80;;
2840;SDS011;53423;49.224;12.074;2022-10-30T14:46:19;10.67;;;4.60;;
2840;SDS011;53423;49.224;12.074;2022-10-30T14:48:56;10.73;;;4.20;;
2840;SDS011;53423;49.224;12.074;2022-10-30T14:51:33;11.53;;;4.67;;
2840;SDS011;53423;49.224;12.074;2022-10-30T14:54:08;8.47;;;4.77;;
2840;SDS011;53423;49.224;12.074;2022-10-30T14:56:45;8.30;;;4.63;;
2840;SDS011;53423;49.224;12.074;2022-10-30T14:59:29;7.93;;;4.43;;
2840;SDS011;53423;49.224;12.074;2022-10-30T15:05:02;7.47;;;4.10;;
2840;SDS011;53423;49.224;12.074;2022-10-30T15:07:42;11.80;;;4.47;;
2840;SDS011;53423;49.224;12.074;2022-10-30T15:10:16;5.77;;;4.30;;
2840;SDS011;53423;49.224;12.074;2022-10-30T15:15:43;10.43;;;4.63;;
2840;SDS011;53423;49.224;12.074;2022-10-30T15:18:14;10.10;;;5.10;;
2840;SDS011;53423;49.224;12.074;2022-10-30T15:20:47;8.63;;;4.63;;
2840;SDS011;53423;49.224;12.074;2022-10-30T15:23:18;7.80;;;4.27;;